createdAt,value
2019-01-14T00:00:06.535Z,983.40
2019-01-14T00:01:06.473Z,983.36
2019-01-14T00:02:06.461Z,983.36
2019-01-14T00:03:06.455Z,983.48
2019-01-14T00:04:06.442Z,983.38
2019-01-14T00:05:06.430Z,983.47
2019-01-14T00:06:10.278Z,983.50
2019-01-14T00:07:06.410Z,983.40
2019-01-14T00:08:06.397Z,983.42
2019-01-14T00:09:06.385Z,983.63
2019-01-14T00:10:06.518Z,983.56
2019-01-14T00:11:06.365Z,983.56
2019-01-14T00:12:06.357Z,983.63
2019-01-14T00:13:06.345Z,983.62
2019-01-14T00:14:06.331Z,983.65
2019-01-14T00:15:06.321Z,983.65
2019-01-14T00:16:06.353Z,983.67
2019-01-14T00:17:06.301Z,983.65
2019-01-14T00:18:06.295Z,983.71
2019-01-14T00:19:06.285Z,983.75
2019-01-14T00:20:06.268Z,983.82
2019-01-14T00:21:06.259Z,983.76
2019-01-14T00:22:06.258Z,983.83
2019-01-14T00:23:06.244Z,983.82
2019-01-14T00:24:06.225Z,983.68
2019-01-14T00:25:06.222Z,983.89
2019-01-14T00:26:06.209Z,983.91
2019-01-14T00:27:06.202Z,983.97
2019-01-14T00:28:06.187Z,984.00
2019-01-14T00:29:06.174Z,983.98
2019-01-14T00:30:06.160Z,984.02
2019-01-14T00:31:06.152Z,984.07
2019-01-14T00:32:06.153Z,984.14
2019-01-14T00:33:06.126Z,984.03
2019-01-14T00:34:06.124Z,984.18
2019-01-14T00:35:06.104Z,984.30
2019-01-14T00:36:06.095Z,984.26
2019-01-14T00:37:06.093Z,984.29
2019-01-14T00:38:06.080Z,984.31
2019-01-14T00:39:06.069Z,984.32
2019-01-14T00:40:06.054Z,984.22
2019-01-14T00:41:06.039Z,984.34
2019-01-14T00:42:06.034Z,984.43
2019-01-14T00:43:06.027Z,984.41
2019-01-14T00:44:06.015Z,984.44
2019-01-14T00:45:05.996Z,984.44
2019-01-14T00:46:05.991Z,984.48
2019-01-14T00:47:05.975Z,984.42
2019-01-14T00:48:05.973Z,984.41
2019-01-14T00:49:05.964Z,984.41
2019-01-14T00:50:05.956Z,984.49
2019-01-14T00:51:05.932Z,984.40
2019-01-14T00:52:05.920Z,984.34
2019-01-14T00:53:05.929Z,984.42
2019-01-14T00:54:05.905Z,984.51
2019-01-14T00:55:05.895Z,984.49
2019-01-14T00:56:05.878Z,984.64
2019-01-14T00:57:05.876Z,984.70
2019-01-14T00:58:05.856Z,984.68
2019-01-14T00:59:05.845Z,984.70
2019-01-14T01:00:05.850Z,984.73
2019-01-14T01:01:05.866Z,984.77
2019-01-14T01:02:05.818Z,984.72
2019-01-14T01:03:05.802Z,984.73
2019-01-14T01:04:05.800Z,984.80
2019-01-14T01:05:05.787Z,984.86
2019-01-14T01:06:05.778Z,984.84
2019-01-14T01:07:05.787Z,984.86
2019-01-14T01:08:05.750Z,984.93
2019-01-14T01:09:05.740Z,984.98
2019-01-14T01:10:05.734Z,985.03
2019-01-14T01:11:05.727Z,984.93
2019-01-14T01:12:05.707Z,984.94
2019-01-14T01:13:05.707Z,985.01
2019-01-14T01:14:05.691Z,985.09
2019-01-14T01:15:05.675Z,985.23
2019-01-14T01:16:05.665Z,985.17
2019-01-14T01:17:05.662Z,985.21
2019-01-14T01:18:05.695Z,985.12
2019-01-14T01:19:05.637Z,985.31
2019-01-14T01:20:05.622Z,985.32
2019-01-14T01:21:05.616Z,985.23
2019-01-14T01:22:05.611Z,985.31
2019-01-14T01:23:05.592Z,985.31
2019-01-14T01:24:05.598Z,985.38
2019-01-14T01:25:05.573Z,985.34
2019-01-14T01:26:05.573Z,985.34
2019-01-14T01:27:05.546Z,985.39
2019-01-14T01:28:05.550Z,985.45
2019-01-14T01:29:05.533Z,985.43
2019-01-14T01:30:05.524Z,985.39
2019-01-14T01:31:05.507Z,985.44
2019-01-14T01:32:05.511Z,985.43
2019-01-14T01:33:05.487Z,985.49
2019-01-14T01:34:05.484Z,985.47
2019-01-14T01:35:05.462Z,985.72
2019-01-14T01:36:05.456Z,985.60
2019-01-14T01:37:05.446Z,985.48
2019-01-14T01:38:05.428Z,985.52
2019-01-14T01:39:05.426Z,985.54
2019-01-14T01:40:05.409Z,985.62
2019-01-14T01:41:05.434Z,985.69
2019-01-14T01:42:05.388Z,985.68
2019-01-14T01:43:05.380Z,985.73
2019-01-14T01:44:05.371Z,985.65
2019-01-14T01:45:05.359Z,985.72
2019-01-14T01:46:05.352Z,985.79
2019-01-14T01:47:05.343Z,985.76
2019-01-14T01:48:05.329Z,985.77
2019-01-14T01:49:05.312Z,985.86
2019-01-14T01:50:05.307Z,985.82
2019-01-14T01:51:05.334Z,985.90
2019-01-14T01:52:05.290Z,986.01
2019-01-14T01:53:05.276Z,986.00
2019-01-14T01:54:05.261Z,986.06
2019-01-14T01:55:05.249Z,986.08
2019-01-14T01:56:05.238Z,986.11
2019-01-14T01:57:05.260Z,986.19
2019-01-14T01:58:05.226Z,986.32
2019-01-14T01:59:05.211Z,986.21
2019-01-14T02:00:05.199Z,986.32
2019-01-14T02:01:05.190Z,986.30
2019-01-14T02:02:05.196Z,986.44
2019-01-14T02:03:05.168Z,986.48
2019-01-14T02:04:05.156Z,986.49
2019-01-14T02:05:05.146Z,986.48
2019-01-14T02:06:05.133Z,986.50
2019-01-14T02:07:05.121Z,986.42
2019-01-14T02:08:05.141Z,986.45
2019-01-14T02:09:05.104Z,986.68
2019-01-14T02:10:05.092Z,986.60
2019-01-14T02:11:05.077Z,986.51
2019-01-14T02:12:05.072Z,986.63
2019-01-14T02:13:05.063Z,986.72
2019-01-14T02:14:05.066Z,986.69
2019-01-14T02:15:05.043Z,986.67
2019-01-14T02:16:05.037Z,986.76
2019-01-14T02:17:05.015Z,986.70
2019-01-14T02:18:05.049Z,986.66
2019-01-14T02:19:04.998Z,986.78
2019-01-14T02:20:04.988Z,986.86
2019-01-14T02:21:04.982Z,986.80
2019-01-14T02:22:04.966Z,986.83
2019-01-14T02:23:04.950Z,986.86
2019-01-14T02:24:04.954Z,986.89
2019-01-14T02:25:04.934Z,986.98
2019-01-14T02:26:04.919Z,986.98
2019-01-14T02:27:04.915Z,986.88
2019-01-14T02:28:04.902Z,987.00
2019-01-14T02:29:04.925Z,986.94
2019-01-14T02:30:04.881Z,986.89
2019-01-14T02:31:04.865Z,987.11
2019-01-14T02:32:04.872Z,987.00
2019-01-14T02:33:04.845Z,987.05
2019-01-14T02:34:04.834Z,987.13
2019-01-14T02:35:04.836Z,987.08
2019-01-14T02:36:04.825Z,987.10
2019-01-14T02:37:04.800Z,987.13
2019-01-14T02:38:04.798Z,987.06
2019-01-14T02:39:04.789Z,987.25
2019-01-14T02:40:04.777Z,987.21
2019-01-14T02:41:04.787Z,987.13
2019-01-14T02:42:04.753Z,987.18
2019-01-14T02:43:04.744Z,987.27
2019-01-14T02:44:04.736Z,987.23
2019-01-14T02:45:04.720Z,987.18
2019-01-14T02:46:04.725Z,987.30
2019-01-14T02:47:04.707Z,987.24
2019-01-14T02:48:04.697Z,987.24
2019-01-14T02:49:04.675Z,987.34
2019-01-14T02:50:04.669Z,987.45
2019-01-14T02:51:04.653Z,987.43
2019-01-14T02:52:04.693Z,987.46
2019-01-14T02:53:04.638Z,987.53
2019-01-14T02:54:04.624Z,987.49
2019-01-14T02:55:04.611Z,987.54
2019-01-14T02:56:04.607Z,987.67
2019-01-14T02:57:04.590Z,987.66
2019-01-14T02:58:04.586Z,987.54
2019-01-14T02:59:04.574Z,987.71
2019-01-14T03:00:04.567Z,987.66
2019-01-14T03:01:04.551Z,987.62
2019-01-14T03:02:04.541Z,987.76
2019-01-14T03:03:04.539Z,987.71
2019-01-14T03:04:04.513Z,987.84
2019-01-14T03:05:04.512Z,987.83
2019-01-14T03:06:04.499Z,987.84
2019-01-14T03:07:04.488Z,987.92
2019-01-14T03:08:04.512Z,987.89
2019-01-14T03:09:04.467Z,987.91
2019-01-14T03:10:04.468Z,987.99
2019-01-14T03:11:04.445Z,987.99
2019-01-14T03:12:04.434Z,988.01
2019-01-14T03:13:04.421Z,988.09
2019-01-14T03:14:04.449Z,988.07
2019-01-14T03:15:04.401Z,988.19
2019-01-14T03:16:04.386Z,988.27
2019-01-14T03:17:04.385Z,988.19
2019-01-14T03:18:04.370Z,988.26
2019-01-14T03:19:04.356Z,988.18
2019-01-14T03:20:04.359Z,988.29
2019-01-14T03:21:04.337Z,988.32
2019-01-14T03:22:04.328Z,988.42
2019-01-14T03:23:04.313Z,988.37
2019-01-14T03:24:04.310Z,988.41
2019-01-14T03:25:04.321Z,988.43
2019-01-14T03:26:04.293Z,988.48
2019-01-14T03:27:04.270Z,988.43
2019-01-14T03:28:04.318Z,988.48
2019-01-14T03:29:04.272Z,988.51
2019-01-14T03:30:04.243Z,988.54
2019-01-14T03:31:04.228Z,988.55
2019-01-14T03:32:04.236Z,988.61
2019-01-14T03:33:04.212Z,988.76
2019-01-14T03:34:04.201Z,988.59
2019-01-14T03:35:04.222Z,988.62
2019-01-14T03:36:04.180Z,988.67
2019-01-14T03:37:05.650Z,988.69
2019-01-14T03:38:04.159Z,988.76
2019-01-14T03:39:04.142Z,988.70
2019-01-14T03:40:04.132Z,988.82
2019-01-14T03:41:04.135Z,988.87
2019-01-14T03:42:04.116Z,988.92
2019-01-14T03:43:04.099Z,988.86
2019-01-14T03:44:04.096Z,988.93
2019-01-14T03:45:04.078Z,988.93
2019-01-14T03:46:04.081Z,988.97
2019-01-14T03:47:04.069Z,988.95
2019-01-14T03:48:04.051Z,989.03
2019-01-14T03:49:04.036Z,988.99
2019-01-14T03:50:04.024Z,989.09
2019-01-14T03:51:04.018Z,989.10
2019-01-14T03:52:04.030Z,989.11
2019-01-14T03:53:04.006Z,989.08
2019-01-14T03:54:03.984Z,989.08
2019-01-14T03:55:03.979Z,989.09
2019-01-14T03:56:03.960Z,989.08
2019-01-14T03:57:03.963Z,989.14
2019-01-14T03:58:03.944Z,989.15
2019-01-14T03:59:03.939Z,989.20
2019-01-14T04:00:03.918Z,989.22
2019-01-14T04:01:03.921Z,989.26
2019-01-14T04:02:03.902Z,989.25
2019-01-14T04:03:03.907Z,989.22
2019-01-14T04:04:03.883Z,989.25
2019-01-14T04:05:03.866Z,989.31
2019-01-14T04:06:03.858Z,989.36
2019-01-14T04:07:03.856Z,989.38
2019-01-14T04:08:03.841Z,989.42
2019-01-14T04:09:03.820Z,989.34
2019-01-14T04:10:03.816Z,989.44
2019-01-14T04:11:03.798Z,989.50
2019-01-14T04:12:03.794Z,989.45
2019-01-14T04:13:03.790Z,989.37
2019-01-14T04:14:03.774Z,989.51
2019-01-14T04:15:03.765Z,989.58
2019-01-14T04:16:03.752Z,989.47
2019-01-14T04:17:03.736Z,989.64
2019-01-14T04:18:03.724Z,989.60
2019-01-14T04:19:03.729Z,989.72
2019-01-14T04:20:03.703Z,989.58
2019-01-14T04:21:03.697Z,989.72
2019-01-14T04:22:03.682Z,989.76
2019-01-14T04:23:03.708Z,989.82
2019-01-14T04:24:04.808Z,989.80
2019-01-14T04:25:03.649Z,989.78
2019-01-14T04:26:03.644Z,989.75
2019-01-14T04:27:03.629Z,989.71
2019-01-14T04:28:03.621Z,989.78
2019-01-14T04:29:03.620Z,989.80
2019-01-14T04:30:03.609Z,990.05
2019-01-14T04:31:03.586Z,989.93
2019-01-14T04:32:03.578Z,989.89
2019-01-14T04:33:03.589Z,990.02
2019-01-14T04:34:03.568Z,989.98
2019-01-14T04:35:03.546Z,990.02
2019-01-14T04:36:03.529Z,990.02
2019-01-14T04:37:03.525Z,989.99
2019-01-14T04:38:03.515Z,990.18
2019-01-14T04:39:03.546Z,989.99
2019-01-14T04:40:03.533Z,990.01
2019-01-14T04:41:03.477Z,990.04
2019-01-14T04:42:03.471Z,990.10
2019-01-14T04:43:03.455Z,990.06
2019-01-14T04:44:03.444Z,990.06
2019-01-14T04:45:03.440Z,990.17
2019-01-14T04:46:03.432Z,990.16
2019-01-14T04:47:03.417Z,990.27
2019-01-14T04:48:03.402Z,990.30
2019-01-14T04:49:03.397Z,990.36
2019-01-14T04:50:03.390Z,990.48
2019-01-14T04:51:03.447Z,990.43
2019-01-14T04:52:03.366Z,990.51
2019-01-14T04:53:03.348Z,990.43
2019-01-14T04:54:03.343Z,990.45
2019-01-14T04:55:03.335Z,990.52
2019-01-14T04:56:03.355Z,990.51
2019-01-14T04:57:03.315Z,990.55
2019-01-14T04:58:03.300Z,990.62
2019-01-14T04:59:03.286Z,990.68
2019-01-14T05:00:03.273Z,990.61
2019-01-14T05:01:03.268Z,990.52
2019-01-14T05:02:03.265Z,990.59
2019-01-14T05:03:03.247Z,990.68
2019-01-14T05:04:03.238Z,990.67
2019-01-14T05:05:03.221Z,990.65
2019-01-14T05:06:03.217Z,990.68
2019-01-14T05:07:03.207Z,990.64
2019-01-14T05:08:03.193Z,990.69
2019-01-14T05:09:03.177Z,990.65
2019-01-14T05:10:03.168Z,990.66
2019-01-14T05:11:03.163Z,990.68
2019-01-14T05:12:03.165Z,990.68
2019-01-14T05:13:03.139Z,990.76
2019-01-14T05:14:03.129Z,990.80
2019-01-14T05:15:03.120Z,990.79
2019-01-14T05:16:03.107Z,990.83
2019-01-14T05:17:03.098Z,990.80
2019-01-14T05:18:03.113Z,990.84
2019-01-14T05:19:03.077Z,990.81
2019-01-14T05:20:03.063Z,990.80
2019-01-14T05:21:03.051Z,990.74
2019-01-14T05:22:03.044Z,990.82
2019-01-14T05:23:03.031Z,990.81
2019-01-14T05:24:03.040Z,990.87
2019-01-14T05:25:03.005Z,990.81
2019-01-14T05:26:03.003Z,990.87
2019-01-14T05:27:03.043Z,990.89
2019-01-14T05:28:02.979Z,990.82
2019-01-14T05:29:02.973Z,990.99
2019-01-14T05:30:02.962Z,990.88
2019-01-14T05:31:02.949Z,990.85
2019-01-14T05:32:02.935Z,990.93
2019-01-14T05:33:02.919Z,990.87
2019-01-14T05:34:02.962Z,990.88
2019-01-14T05:35:02.933Z,990.83
2019-01-14T05:36:02.893Z,990.86
2019-01-14T05:37:02.880Z,990.92
2019-01-14T05:38:11.627Z,990.94
2019-01-14T05:39:02.854Z,990.89
2019-01-14T05:40:02.873Z,990.91
2019-01-14T05:41:02.837Z,990.80
2019-01-14T05:42:02.836Z,990.91
2019-01-14T05:43:02.816Z,990.88
2019-01-14T05:44:02.807Z,990.92
2019-01-14T05:45:02.809Z,990.89
2019-01-14T05:46:02.788Z,990.81
2019-01-14T05:47:02.768Z,990.83
2019-01-14T05:48:02.777Z,990.86
2019-01-14T05:49:02.752Z,990.84
2019-01-14T05:50:02.752Z,990.92
2019-01-14T05:51:02.736Z,990.97
2019-01-14T05:52:02.723Z,990.93
2019-01-14T05:53:02.709Z,990.98
2019-01-14T05:54:02.706Z,990.98
2019-01-14T05:55:02.683Z,990.97
2019-01-14T05:56:02.676Z,991.00
2019-01-14T05:57:02.673Z,990.99
2019-01-14T05:58:02.667Z,990.94
2019-01-14T05:59:02.641Z,990.91
2019-01-14T06:00:02.642Z,990.97
2019-01-14T06:01:02.748Z,990.87
2019-01-14T06:02:02.610Z,990.89
2019-01-14T06:03:02.614Z,990.97
2019-01-14T06:04:02.587Z,990.95
2019-01-14T06:05:02.592Z,990.90
2019-01-14T06:06:02.575Z,990.98
2019-01-14T06:07:02.572Z,990.95
2019-01-14T06:08:02.551Z,990.98
2019-01-14T06:09:02.536Z,991.04
2019-01-14T06:10:02.525Z,991.14
2019-01-14T06:11:02.517Z,990.95
2019-01-14T06:12:02.551Z,991.17
2019-01-14T06:13:02.498Z,991.28
2019-01-14T06:14:02.490Z,991.19
2019-01-14T06:15:02.479Z,991.26
2019-01-14T06:16:02.468Z,991.20
2019-01-14T06:17:02.454Z,991.22
2019-01-14T06:18:02.455Z,991.13
2019-01-14T06:19:02.434Z,991.14
2019-01-14T06:20:02.434Z,991.20
2019-01-14T06:21:02.406Z,991.17
2019-01-14T06:22:02.401Z,991.26
2019-01-14T06:23:02.397Z,991.15
2019-01-14T06:24:02.381Z,991.17
2019-01-14T06:25:02.372Z,991.26
2019-01-14T06:26:02.366Z,991.27
2019-01-14T06:27:02.347Z,991.33
2019-01-14T06:28:02.336Z,991.33
2019-01-14T06:29:02.357Z,991.40
2019-01-14T06:30:02.319Z,991.37
2019-01-14T06:31:02.308Z,991.46
2019-01-14T06:32:02.288Z,991.48
2019-01-14T06:33:02.283Z,991.37
2019-01-14T06:34:02.276Z,991.56
2019-01-14T06:35:02.271Z,991.46
2019-01-14T06:36:02.269Z,991.58
2019-01-14T06:37:02.247Z,991.60
2019-01-14T06:38:02.231Z,991.52
2019-01-14T06:39:02.215Z,991.63
2019-01-14T06:40:02.206Z,991.53
2019-01-14T06:41:02.199Z,991.66
2019-01-14T06:42:02.201Z,991.75
2019-01-14T06:43:02.178Z,991.69
2019-01-14T06:44:02.167Z,991.69
2019-01-14T06:45:02.216Z,991.76
2019-01-14T06:46:02.146Z,991.82
2019-01-14T06:47:02.149Z,991.78
2019-01-14T06:48:02.148Z,991.50
2019-01-14T06:49:02.113Z,991.75
2019-01-14T06:50:02.099Z,991.91
2019-01-14T06:51:02.090Z,991.80
2019-01-14T06:52:02.080Z,991.86
2019-01-14T06:53:02.080Z,991.93
2019-01-14T06:54:02.055Z,991.93
2019-01-14T06:55:02.048Z,991.95
2019-01-14T06:56:02.040Z,991.94
2019-01-14T06:57:02.027Z,992.10
2019-01-14T06:58:02.024Z,992.14
2019-01-14T06:59:02.011Z,992.21
2019-01-14T07:00:01.997Z,992.18
2019-01-14T07:01:01.981Z,992.27
2019-01-14T07:02:01.972Z,992.50
2019-01-14T07:03:01.996Z,992.42
2019-01-14T07:04:01.951Z,992.51
2019-01-14T07:05:01.937Z,992.51
2019-01-14T07:06:01.931Z,992.67
2019-01-14T07:07:01.915Z,992.65
2019-01-14T07:08:01.908Z,992.65
2019-01-14T07:09:01.912Z,992.72
2019-01-14T07:10:01.902Z,992.60
2019-01-14T07:11:01.875Z,992.64
2019-01-14T07:12:02.629Z,992.70
2019-01-14T07:13:01.866Z,992.76
2019-01-14T07:14:01.852Z,992.73
2019-01-14T07:15:01.833Z,992.81
2019-01-14T07:16:01.831Z,992.80
2019-01-14T07:17:01.809Z,992.82
2019-01-14T07:18:01.794Z,992.84
2019-01-14T07:19:01.799Z,992.87
2019-01-14T07:20:01.786Z,992.92
2019-01-14T07:21:01.778Z,992.82
2019-01-14T07:22:01.752Z,992.86
2019-01-14T07:23:01.754Z,992.97
2019-01-14T07:24:01.736Z,992.93
2019-01-14T07:25:01.771Z,992.91
2019-01-14T07:26:01.709Z,992.95
2019-01-14T07:27:01.706Z,992.96
2019-01-14T07:28:01.695Z,992.92
2019-01-14T07:29:01.696Z,992.96
2019-01-14T07:30:01.666Z,992.97
2019-01-14T07:31:01.673Z,993.09
2019-01-14T07:32:01.654Z,992.97
2019-01-14T07:33:01.647Z,992.95
2019-01-14T07:34:01.631Z,993.03
2019-01-14T07:35:02.296Z,993.19
2019-01-14T07:36:01.631Z,993.05
2019-01-14T07:37:01.591Z,993.16
2019-01-14T07:38:06.699Z,993.11
2019-01-14T07:39:02.579Z,993.04
2019-01-14T07:40:01.560Z,993.15
2019-01-14T07:41:01.582Z,993.26
2019-01-14T07:42:01.542Z,993.07
2019-01-14T07:43:01.526Z,993.19
2019-01-14T07:44:01.516Z,993.20
2019-01-14T07:45:01.509Z,993.25
2019-01-14T07:46:01.499Z,993.10
2019-01-14T07:47:01.492Z,993.31
2019-01-14T07:48:01.477Z,993.25
2019-01-14T07:49:01.469Z,993.13
2019-01-14T07:50:01.453Z,993.24
2019-01-14T07:51:01.441Z,993.29
2019-01-14T07:52:01.446Z,993.27
2019-01-14T07:53:01.419Z,993.36
2019-01-14T07:54:01.409Z,993.43
2019-01-14T07:55:01.399Z,993.36
2019-01-14T07:56:01.387Z,993.49
2019-01-14T07:57:01.433Z,993.46
2019-01-14T07:58:01.372Z,993.52
2019-01-14T07:59:01.361Z,993.48
2019-01-14T08:00:01.348Z,993.54
2019-01-14T08:01:01.334Z,993.50
2019-01-14T08:02:01.327Z,993.57
2019-01-14T08:03:01.319Z,993.52
2019-01-14T08:04:01.302Z,993.52
2019-01-14T08:05:01.296Z,993.48
2019-01-14T08:06:01.291Z,993.67
2019-01-14T08:07:01.271Z,993.61
2019-01-14T08:08:01.297Z,993.68
2019-01-14T08:09:01.252Z,993.65
2019-01-14T08:10:01.243Z,993.71
2019-01-14T08:11:01.230Z,993.71
2019-01-14T08:12:01.214Z,993.79
2019-01-14T08:13:01.204Z,993.75
2019-01-14T08:14:01.232Z,993.74
2019-01-14T08:15:01.193Z,993.74
2019-01-14T08:16:01.181Z,993.85
2019-01-14T08:17:01.167Z,993.85
2019-01-14T08:18:01.159Z,993.83
2019-01-14T08:19:01.142Z,993.98
2019-01-14T08:20:01.169Z,993.92
2019-01-14T08:21:01.119Z,993.87
2019-01-14T08:22:01.118Z,993.90
2019-01-14T08:23:01.100Z,993.88
2019-01-14T08:24:01.086Z,993.89
2019-01-14T08:25:01.081Z,993.80
2019-01-14T08:26:01.078Z,993.95
2019-01-14T08:27:01.057Z,993.84
2019-01-14T08:28:01.045Z,993.88
2019-01-14T08:29:01.038Z,993.90
2019-01-14T08:30:01.034Z,993.85
2019-01-14T08:31:01.022Z,993.92
2019-01-14T08:32:01.007Z,994.00
2019-01-14T08:33:00.993Z,993.99
2019-01-14T08:34:00.991Z,993.97
2019-01-14T08:35:00.983Z,994.05
2019-01-14T08:36:01.022Z,993.99
2019-01-14T08:37:01.028Z,994.00
2019-01-14T08:38:00.945Z,993.95
2019-01-14T08:39:00.927Z,993.99
2019-01-14T08:40:00.921Z,994.01
2019-01-14T08:41:00.906Z,994.02
2019-01-14T08:42:00.913Z,994.01
2019-01-14T08:43:00.888Z,994.11
2019-01-14T08:44:00.880Z,994.04
2019-01-14T08:45:00.867Z,994.03
2019-01-14T08:46:00.853Z,994.02
2019-01-14T08:47:00.862Z,994.09
2019-01-14T08:48:00.838Z,994.16
2019-01-14T08:49:00.820Z,994.12
2019-01-14T08:50:00.810Z,994.10
2019-01-14T08:51:00.803Z,994.18
2019-01-14T08:52:00.791Z,994.15
2019-01-14T08:53:00.787Z,994.12
2019-01-14T08:54:00.781Z,994.15
2019-01-14T08:55:00.757Z,994.11
2019-01-14T08:56:00.752Z,994.08
2019-01-14T08:57:00.753Z,994.18
2019-01-14T08:58:00.732Z,994.10
2019-01-14T08:59:00.727Z,994.22
2019-01-14T09:00:00.708Z,994.15
2019-01-14T09:01:00.700Z,994.14
2019-01-14T09:02:00.688Z,994.25
2019-01-14T09:03:00.681Z,994.18
2019-01-14T09:04:00.666Z,994.17
2019-01-14T09:05:00.650Z,994.22
2019-01-14T09:06:00.643Z,994.33
2019-01-14T09:07:00.628Z,994.24
2019-01-14T09:08:00.633Z,994.40
2019-01-14T09:09:00.611Z,994.34
2019-01-14T09:10:00.599Z,994.40
2019-01-14T09:11:00.585Z,994.33
2019-01-14T09:12:00.582Z,994.41
2019-01-14T09:13:00.604Z,994.53
2019-01-14T09:14:00.559Z,994.44
2019-01-14T09:15:00.551Z,994.47
2019-01-14T09:16:00.534Z,994.52
2019-01-14T09:17:00.524Z,994.51
2019-01-14T09:18:02.826Z,994.47
2019-01-14T09:19:00.507Z,994.59
2019-01-14T09:20:00.496Z,994.51
2019-01-14T09:21:00.484Z,994.57
2019-01-14T09:22:00.468Z,994.63
2019-01-14T09:23:00.469Z,994.65
2019-01-14T09:24:00.458Z,994.65
2019-01-14T09:25:00.523Z,994.52
2019-01-14T09:26:00.429Z,994.59
2019-01-14T09:27:00.425Z,994.58
2019-01-14T09:28:00.408Z,994.59
2019-01-14T09:29:00.440Z,994.66
2019-01-14T09:30:00.421Z,994.39
2019-01-14T09:31:00.377Z,994.52
2019-01-14T09:32:00.372Z,994.56
2019-01-14T09:33:00.353Z,994.60
2019-01-14T09:34:00.340Z,994.60
2019-01-14T09:35:00.336Z,994.57
2019-01-14T09:36:00.321Z,994.76
2019-01-14T09:37:00.310Z,994.63
2019-01-14T09:38:00.302Z,994.68
2019-01-14T09:39:00.322Z,994.71
2019-01-14T09:40:00.275Z,994.71
2019-01-14T09:41:00.262Z,994.77
2019-01-14T09:42:00.256Z,994.74
2019-01-14T09:43:00.248Z,994.69
2019-01-14T09:44:00.237Z,994.71
2019-01-14T09:45:00.228Z,994.59
2019-01-14T09:46:00.244Z,994.74
2019-01-14T09:47:00.206Z,994.80
2019-01-14T09:48:00.202Z,994.72
2019-01-14T09:49:00.180Z,994.73
2019-01-14T09:50:00.248Z,994.70
2019-01-14T09:51:00.162Z,994.67
2019-01-14T09:52:00.157Z,994.83
2019-01-14T09:53:00.133Z,994.73
2019-01-14T09:54:00.122Z,994.78
2019-01-14T09:55:00.213Z,994.71
2019-01-14T09:56:01.097Z,994.72
2019-01-14T09:57:00.136Z,994.72
2019-01-14T09:58:00.083Z,994.69
2019-01-14T09:59:00.068Z,994.67
2019-01-14T10:00:00.158Z,994.64
2019-01-14T10:01:00.055Z,994.73
2019-01-14T10:02:00.053Z,994.69
2019-01-14T10:03:00.033Z,994.57
2019-01-14T10:04:00.012Z,994.55
2019-01-14T10:05:00.005Z,994.56
2019-01-14T10:06:00.017Z,994.63
2019-01-14T10:06:59.992Z,994.59
2019-01-14T10:07:59.986Z,994.64
2019-01-14T10:08:59.964Z,994.71
2019-01-14T10:09:59.954Z,994.67
2019-01-14T10:10:59.968Z,994.76
2019-01-14T10:11:59.932Z,994.65
2019-01-14T10:12:59.919Z,994.76
2019-01-14T10:13:59.910Z,994.69
2019-01-14T10:14:59.935Z,994.68
2019-01-14T10:15:59.883Z,994.79
2019-01-14T10:16:59.882Z,994.76
2019-01-14T10:17:59.864Z,994.88
2019-01-14T10:18:59.900Z,994.73
2019-01-14T10:19:59.846Z,994.89
2019-01-14T10:20:59.829Z,994.83
2019-01-14T10:21:59.828Z,994.72
2019-01-14T10:22:59.818Z,994.79
2019-01-14T10:23:59.801Z,994.76
2019-01-14T10:24:59.810Z,994.95
2019-01-14T10:25:59.779Z,994.72
2019-01-14T10:26:59.769Z,994.68
2019-01-14T10:27:59.760Z,994.70
2019-01-14T10:28:59.750Z,994.68
2019-01-14T10:29:59.737Z,994.70
2019-01-14T10:30:59.743Z,994.66
2019-01-14T10:31:59.715Z,994.66
2019-01-14T10:32:59.704Z,994.64
2019-01-14T10:33:59.704Z,994.73
2019-01-14T10:34:59.683Z,994.72
2019-01-14T10:35:59.671Z,994.81
2019-01-14T10:36:59.667Z,994.78
2019-01-14T10:37:59.648Z,994.68
2019-01-14T10:38:59.649Z,994.77
2019-01-14T10:39:59.630Z,994.68
2019-01-14T10:40:59.617Z,994.77
2019-01-14T10:41:59.611Z,994.58
2019-01-14T10:42:59.606Z,994.66
2019-01-14T10:43:59.580Z,994.64
2019-01-14T10:44:59.592Z,994.60
2019-01-14T10:45:59.577Z,994.76
2019-01-14T10:46:59.561Z,994.72
2019-01-14T10:47:59.537Z,994.74
2019-01-14T10:48:59.532Z,994.72
2019-01-14T10:49:59.515Z,994.70
2019-01-14T10:50:59.504Z,994.70
2019-01-14T10:51:59.526Z,994.57
2019-01-14T10:52:59.491Z,994.70
2019-01-14T10:53:59.476Z,994.59
2019-01-14T10:54:59.483Z,994.60
2019-01-14T10:55:59.505Z,994.80
2019-01-14T10:56:59.439Z,994.86
2019-01-14T10:57:59.427Z,994.61
2019-01-14T10:58:59.423Z,994.67
2019-01-14T10:59:59.413Z,994.54
2019-01-14T11:00:59.413Z,994.62
2019-01-14T11:01:59.398Z,994.84
2019-01-14T11:02:59.380Z,994.73
2019-01-14T11:03:59.367Z,994.79
2019-01-14T11:04:59.361Z,994.66
2019-01-14T11:05:59.347Z,994.83
2019-01-14T11:06:59.355Z,994.78
2019-01-14T11:07:59.323Z,994.73
2019-01-14T11:09:05.641Z,994.77
2019-01-14T11:10:00.302Z,994.85
2019-01-14T11:10:59.295Z,994.85
2019-01-14T11:11:59.330Z,994.77
2019-01-14T11:12:59.266Z,994.86
2019-01-14T11:13:59.266Z,994.86
2019-01-14T11:15:02.868Z,994.92
2019-01-14T11:15:59.237Z,994.83
2019-01-14T11:16:59.222Z,994.91
2019-01-14T11:17:59.226Z,994.84
2019-01-14T11:18:59.206Z,994.88
2019-01-14T11:19:59.193Z,994.86
2019-01-14T11:20:59.188Z,995.02
2019-01-14T11:21:59.169Z,995.04
2019-01-14T11:22:59.175Z,995.10
2019-01-14T11:23:59.160Z,995.00
2019-01-14T11:24:59.136Z,995.04
2019-01-14T11:25:59.125Z,995.02
2019-01-14T11:26:59.116Z,995.05
2019-01-14T11:27:59.122Z,995.01
2019-01-14T11:28:59.160Z,995.00
2019-01-14T11:29:59.087Z,995.06
2019-01-14T11:30:59.120Z,995.11
2019-01-14T11:31:59.062Z,995.00
2019-01-14T11:32:59.064Z,995.17
2019-01-14T11:33:59.043Z,995.07
2019-01-14T11:34:59.044Z,995.07
2019-01-14T11:35:59.019Z,995.18
2019-01-14T11:36:59.010Z,995.18
2019-01-14T11:37:59.027Z,995.27
2019-01-14T11:39:06.665Z,995.20
2019-01-14T11:39:58.989Z,995.17
2019-01-14T11:40:58.965Z,995.19
2019-01-14T11:41:58.972Z,995.22
2019-01-14T11:42:58.946Z,995.24
2019-01-14T11:43:58.934Z,995.14
2019-01-14T11:44:58.922Z,995.25
2019-01-14T11:45:58.923Z,995.24
2019-01-14T11:46:58.898Z,995.20
2019-01-14T11:47:58.892Z,995.19
2019-01-14T11:48:58.889Z,995.25
2019-01-14T11:49:58.866Z,995.27
2019-01-14T11:50:58.925Z,995.27
2019-01-14T11:51:58.854Z,995.21
2019-01-14T11:52:58.837Z,995.33
2019-01-14T11:53:58.826Z,995.31
2019-01-14T11:54:58.811Z,995.30
2019-01-14T11:55:58.816Z,995.27
2019-01-14T11:56:58.790Z,995.34
2019-01-14T11:57:58.785Z,995.26
2019-01-14T11:58:58.776Z,995.38
2019-01-14T11:59:58.757Z,995.29
2019-01-14T12:00:58.756Z,995.54
2019-01-14T12:01:58.734Z,995.38
2019-01-14T12:02:58.734Z,995.60
2019-01-14T12:03:58.718Z,995.59
2019-01-14T12:04:58.711Z,995.60
2019-01-14T12:05:58.693Z,995.56
2019-01-14T12:06:58.730Z,995.72
2019-01-14T12:07:58.671Z,995.82
2019-01-14T12:08:58.664Z,995.74
2019-01-14T12:09:58.653Z,995.61
2019-01-14T12:10:58.641Z,995.64
2019-01-14T12:11:58.633Z,995.74
2019-01-14T12:12:58.631Z,995.74
2019-01-14T12:13:58.607Z,995.69
2019-01-14T12:14:58.597Z,995.72
2019-01-14T12:15:58.585Z,995.68
2019-01-14T12:16:58.629Z,995.65
2019-01-14T12:17:58.564Z,995.69
2019-01-14T12:18:58.558Z,995.64
2019-01-14T12:19:58.547Z,995.58
2019-01-14T12:20:58.537Z,995.63
2019-01-14T12:21:58.521Z,995.43
2019-01-14T12:22:58.542Z,995.48
2019-01-14T12:23:58.505Z,995.54
2019-01-14T12:24:58.494Z,995.66
2019-01-14T12:25:58.524Z,995.62
2019-01-14T12:26:58.468Z,995.60
2019-01-14T12:27:58.458Z,995.66